createdAt,value
2023-01-21T00:02:18.155Z,40.20
2023-01-21T00:04:46.268Z,34.67
2023-01-21T00:07:12.963Z,35.67
2023-01-21T00:09:39.614Z,44.67
2023-01-21T00:12:06.407Z,45.97
2023-01-21T00:14:33.185Z,39.60
2023-01-21T00:16:59.971Z,42.20
2023-01-21T00:19:28.352Z,41.00
2023-01-21T00:21:55.458Z,44.00
2023-01-21T00:24:23.751Z,43.50
2023-01-21T00:26:51.076Z,36.63
2023-01-21T00:29:18.171Z,36.23
2023-01-21T00:31:45.188Z,34.57
2023-01-21T00:34:12.201Z,27.97
2023-01-21T00:36:39.531Z,35.67
2023-01-21T00:39:06.813Z,34.27
2023-01-21T00:41:33.806Z,39.23
2023-01-21T00:44:00.766Z,42.23
2023-01-21T00:46:28.141Z,47.10
2023-01-21T00:48:55.668Z,35.07
2023-01-21T00:51:22.886Z,34.30
2023-01-21T00:53:50.155Z,31.53
2023-01-21T00:56:17.098Z,46.30
2023-01-21T00:58:44.403Z,36.53
2023-01-21T01:01:14.510Z,30.67
2023-01-21T01:03:41.828Z,35.73
2023-01-21T01:06:11.076Z,34.17
2023-01-21T01:08:38.301Z,35.30
2023-01-21T01:11:06.065Z,39.07
2023-01-21T01:13:34.004Z,27.50
2023-01-21T01:16:01.851Z,31.60
2023-01-21T01:18:29.733Z,29.77
2023-01-21T01:20:56.809Z,37.10
2023-01-21T01:23:23.793Z,39.47
2023-01-21T01:25:58.280Z,50.07
2023-01-21T01:28:26.011Z,58.20
2023-01-21T01:30:53.039Z,62.47
2023-01-21T01:33:19.829Z,52.17
2023-01-21T01:35:46.870Z,63.50
2023-01-21T01:38:13.794Z,60.50
2023-01-21T01:40:40.524Z,60.87
2023-01-21T01:43:15.585Z,67.47
2023-01-21T01:45:42.935Z,67.57
2023-01-21T01:48:13.778Z,68.03
2023-01-21T01:50:41.429Z,49.97
2023-01-21T01:53:09.488Z,63.47
2023-01-21T01:55:38.317Z,63.17
2023-01-21T01:58:08.229Z,69.07
2023-01-21T02:00:35.343Z,58.37
2023-01-21T02:03:21.236Z,61.50
2023-01-21T02:05:48.224Z,54.47
2023-01-21T02:08:15.431Z,48.67
2023-01-21T02:10:42.414Z,61.63
2023-01-21T02:13:09.759Z,65.07
2023-01-21T02:15:44.133Z,58.30
2023-01-21T02:18:23.033Z,50.73
2023-01-21T02:21:34.028Z,57.50
2023-01-21T02:24:35.125Z,56.73
2023-01-21T02:27:30.430Z,52.40
2023-01-21T02:30:23.420Z,61.50
2023-01-21T02:33:30.532Z,51.80
2023-01-21T02:36:09.520Z,64.17
2023-01-21T02:38:44.823Z,50.60
2023-01-21T02:41:23.548Z,63.33
2023-01-21T02:43:59.557Z,55.13
2023-01-21T02:46:32.872Z,68.23
2023-01-21T02:49:04.316Z,58.23
2023-01-21T02:51:31.184Z,49.27
2023-01-21T02:53:58.149Z,47.50
2023-01-21T02:56:26.727Z,52.63
2023-01-21T02:58:59.401Z,48.07
2023-01-21T03:01:37.488Z,45.93
2023-01-21T03:04:32.985Z,48.37
2023-01-21T03:07:08.191Z,48.27
2023-01-21T03:09:35.914Z,45.80
2023-01-21T03:12:12.290Z,46.20
2023-01-21T03:15:04.398Z,50.40
2023-01-21T03:17:36.193Z,40.63
2023-01-21T03:20:10.668Z,40.53
2023-01-21T03:22:38.384Z,47.67
2023-01-21T03:25:07.748Z,50.30
2023-01-21T03:27:38.491Z,47.43
2023-01-21T03:30:10.844Z,42.10
2023-01-21T03:32:39.295Z,49.53
2023-01-21T03:35:08.686Z,47.97
2023-01-21T03:37:41.474Z,45.63
2023-01-21T03:40:18.520Z,52.10
2023-01-21T03:42:46.681Z,43.97
2023-01-21T03:45:13.986Z,51.17
2023-01-21T03:47:44.092Z,31.97
2023-01-21T03:50:16.240Z,40.73
2023-01-21T03:52:44.689Z,38.90
2023-01-21T03:55:13.522Z,44.67
2023-01-21T03:57:40.257Z,42.97
2023-01-21T04:00:08.170Z,40.97
2023-01-21T04:02:35.118Z,42.47
2023-01-21T04:05:02.009Z,41.97
2023-01-21T04:07:29.295Z,31.03
2023-01-21T04:09:56.215Z,34.43
2023-01-21T04:12:23.191Z,34.47
2023-01-21T04:14:50.107Z,37.30
2023-01-21T04:17:17.035Z,30.20
2023-01-21T04:19:43.978Z,36.17
2023-01-21T04:22:10.879Z,33.77
2023-01-21T04:24:38.312Z,31.20
2023-01-21T04:27:04.932Z,31.27
2023-01-21T04:29:31.855Z,26.07
2023-01-21T04:31:58.606Z,24.73
2023-01-21T04:34:25.316Z,28.87
2023-01-21T04:36:52.006Z,32.57
2023-01-21T04:39:18.923Z,34.13
2023-01-21T04:41:46.275Z,28.97
2023-01-21T04:44:13.283Z,24.37
2023-01-21T04:46:39.887Z,24.17
2023-01-21T04:49:06.861Z,26.80
2023-01-21T04:51:33.799Z,26.90
2023-01-21T04:54:00.726Z,35.80
2023-01-21T04:56:27.666Z,23.50
2023-01-21T04:58:55.037Z,25.93
2023-01-21T05:01:21.990Z,23.63
2023-01-21T05:03:48.983Z,24.20
2023-01-21T05:06:15.891Z,23.70
2023-01-21T05:08:42.512Z,24.67
2023-01-21T05:11:10.011Z,22.10
2023-01-21T05:13:36.926Z,24.87
2023-01-21T05:16:07.695Z,23.27
2023-01-21T05:18:34.437Z,29.63
2023-01-21T05:21:01.056Z,34.00
2023-01-21T05:23:27.700Z,21.33
2023-01-21T05:25:54.589Z,24.93
2023-01-21T05:28:21.439Z,36.20
2023-01-21T05:30:48.381Z,17.63
2023-01-21T05:33:15.695Z,28.00
2023-01-21T05:35:42.696Z,21.07
2023-01-21T05:38:09.366Z,28.60
2023-01-21T05:40:35.981Z,23.50
2023-01-21T05:43:02.903Z,25.40
2023-01-21T05:45:29.846Z,30.33
2023-01-21T05:47:56.539Z,21.13
2023-01-21T05:50:23.898Z,27.03
2023-01-21T05:52:50.499Z,26.17
2023-01-21T05:55:17.236Z,24.97
2023-01-21T05:57:44.470Z,36.77
2023-01-21T06:00:12.274Z,33.93
2023-01-21T06:02:38.888Z,23.07
2023-01-21T06:05:06.502Z,25.70
2023-01-21T06:07:33.781Z,28.17
2023-01-21T06:10:00.375Z,30.33
2023-01-21T06:12:27.279Z,25.97
2023-01-21T06:14:53.985Z,28.43
2023-01-21T06:17:20.937Z,32.23
2023-01-21T06:19:47.652Z,32.57
2023-01-21T06:22:15.678Z,34.70
2023-01-21T06:24:43.070Z,30.37
2023-01-21T06:27:09.784Z,29.07
2023-01-21T06:29:36.423Z,28.70
2023-01-21T06:32:03.374Z,38.57
2023-01-21T06:34:30.048Z,34.17
2023-01-21T06:36:56.640Z,29.27
2023-01-21T06:39:23.543Z,30.80
2023-01-21T06:41:51.364Z,34.80
2023-01-21T06:44:19.343Z,34.63
2023-01-21T06:47:00.088Z,36.87
2023-01-21T06:49:27.821Z,32.90
2023-01-21T06:51:55.620Z,37.17
2023-01-21T06:54:22.500Z,41.90
2023-01-21T06:56:49.400Z,32.17
2023-01-21T06:59:16.711Z,35.07
2023-01-21T07:01:43.664Z,42.97
2023-01-21T07:04:10.622Z,43.23
2023-01-21T07:06:37.525Z,41.17
2023-01-21T07:09:04.539Z,38.87
2023-01-21T07:11:31.619Z,33.73
2023-01-21T07:13:58.429Z,41.57
2023-01-21T07:16:25.817Z,39.93
2023-01-21T07:18:52.747Z,31.63
2023-01-21T07:21:19.970Z,39.03
2023-01-21T07:23:46.893Z,44.93
2023-01-21T07:26:13.543Z,41.40
2023-01-21T07:28:40.489Z,39.27
2023-01-21T07:31:08.068Z,39.97
2023-01-21T07:33:35.398Z,42.43
2023-01-21T07:36:02.328Z,41.73
2023-01-21T07:38:29.226Z,44.50
2023-01-21T07:40:56.149Z,43.87
2023-01-21T07:43:23.287Z,37.70
2023-01-21T07:45:50.385Z,47.60
2023-01-21T07:48:17.534Z,39.17
2023-01-21T07:50:44.886Z,42.57
2023-01-21T07:53:12.633Z,34.63
2023-01-21T07:55:39.303Z,42.33
2023-01-21T07:58:06.184Z,38.37
2023-01-21T08:00:33.064Z,44.67
2023-01-21T08:03:00.045Z,46.90
2023-01-21T08:05:27.223Z,34.53
2023-01-21T08:07:57.347Z,35.30
2023-01-21T08:10:24.375Z,46.47
2023-01-21T08:12:51.161Z,47.93
2023-01-21T08:15:18.515Z,41.03
2023-01-21T08:17:46.401Z,38.97
2023-01-21T08:20:13.991Z,48.40
2023-01-21T08:22:40.873Z,38.13
2023-01-21T08:25:09.236Z,39.90
2023-01-21T08:27:35.921Z,44.80
2023-01-21T08:30:02.885Z,42.43
2023-01-21T08:32:30.355Z,33.17
2023-01-21T08:34:57.272Z,36.70
2023-01-21T08:37:23.895Z,36.33
2023-01-21T08:39:50.507Z,37.97
2023-01-21T08:42:17.840Z,38.47
2023-01-21T08:44:45.322Z,40.00
2023-01-21T08:47:12.064Z,38.23
2023-01-21T08:49:38.988Z,44.60
2023-01-21T08:52:05.812Z,40.93
2023-01-21T08:54:32.719Z,38.17
2023-01-21T08:56:59.640Z,33.00
2023-01-21T08:59:27.908Z,35.53
2023-01-21T09:01:54.921Z,37.10
2023-01-21T09:04:22.777Z,35.17
2023-01-21T09:06:49.492Z,37.50
2023-01-21T09:09:16.574Z,37.83
2023-01-21T09:11:43.685Z,36.67
2023-01-21T09:14:10.673Z,40.23
2023-01-21T09:16:38.515Z,39.37
2023-01-21T09:19:05.518Z,37.50
2023-01-21T09:21:34.102Z,40.60
2023-01-21T09:24:01.007Z,38.30
2023-01-21T09:26:27.849Z,38.63
2023-01-21T09:28:56.210Z,35.90
2023-01-21T09:31:24.985Z,36.87
2023-01-21T09:33:54.519Z,33.67
2023-01-21T09:36:23.039Z,37.63
2023-01-21T09:38:50.937Z,35.20
2023-01-21T09:41:27.287Z,36.07
2023-01-21T09:43:59.803Z,35.60
2023-01-21T09:46:33.212Z,41.57
2023-01-21T09:49:02.402Z,37.33
2023-01-21T09:51:47.875Z,36.30
2023-01-21T09:54:20.420Z,31.80
2023-01-21T09:57:03.286Z,35.33
2023-01-21T09:59:42.106Z,36.13
2023-01-21T10:02:20.310Z,33.93
2023-01-21T10:04:52.865Z,33.97
2023-01-21T10:07:24.999Z,35.50
2023-01-21T10:10:05.542Z,29.43
2023-01-21T10:12:49.133Z,32.73
2023-01-21T10:15:49.092Z,37.97
2023-01-21T10:18:19.190Z,39.60
2023-01-21T10:20:54.317Z,33.93
2023-01-21T10:23:26.916Z,34.87
2023-01-21T10:25:54.836Z,40.80
2023-01-21T10:28:23.879Z,38.93
2023-01-21T10:30:52.427Z,35.77
2023-01-21T10:33:21.892Z,41.30
2023-01-21T10:36:18.009Z,34.03
2023-01-21T10:38:55.688Z,30.03
2023-01-21T10:41:35.475Z,38.57
2023-01-21T10:44:12.912Z,40.27
2023-01-21T10:46:44.579Z,34.17
2023-01-21T10:49:24.925Z,33.53
2023-01-21T10:51:58.590Z,40.53
2023-01-21T10:54:38.399Z,31.70
2023-01-21T10:57:12.988Z,35.40
2023-01-21T10:59:41.284Z,38.37
2023-01-21T11:02:19.424Z,39.47
2023-01-21T11:04:46.396Z,42.53
2023-01-21T11:07:17.357Z,32.97
2023-01-21T11:09:46.679Z,29.40
2023-01-21T11:12:17.502Z,36.47
2023-01-21T11:14:47.472Z,30.43
2023-01-21T11:17:29.953Z,28.37
2023-01-21T11:19:59.662Z,36.73
2023-01-21T11:22:29.900Z,28.33
2023-01-21T11:24:56.729Z,29.50
2023-01-21T11:27:32.843Z,25.17
2023-01-21T11:29:59.640Z,30.47
2023-01-21T11:32:28.054Z,28.53
2023-01-21T11:35:04.109Z,29.63
2023-01-21T11:37:32.579Z,27.73
2023-01-21T11:40:01.367Z,29.87
2023-01-21T11:42:28.027Z,27.23
2023-01-21T11:44:56.960Z,26.90
2023-01-21T11:47:30.189Z,27.63
2023-01-21T11:50:03.121Z,25.47
2023-01-21T11:52:29.813Z,22.30
2023-01-21T11:54:57.167Z,23.77
2023-01-21T11:57:29.791Z,25.10
2023-01-21T12:00:03.902Z,29.47
2023-01-21T12:02:33.781Z,19.80
2023-01-21T12:05:04.218Z,21.47
2023-01-21T12:07:33.256Z,25.10
2023-01-21T12:10:18.926Z,25.20
2023-01-21T12:13:00.359Z,23.47
2023-01-21T12:15:39.620Z,19.63
2023-01-21T12:18:16.594Z,21.93
2023-01-21T12:20:54.680Z,22.00
2023-01-21T12:23:42.686Z,22.37
2023-01-21T12:26:29.210Z,17.67
2023-01-21T12:29:23.745Z,14.83
2023-01-21T12:31:55.368Z,17.70
2023-01-21T12:34:28.931Z,20.33
2023-01-21T12:36:59.989Z,14.93
2023-01-21T12:39:31.428Z,16.37
2023-01-21T12:42:08.657Z,17.80
2023-01-21T12:44:41.450Z,22.50
2023-01-21T12:47:18.747Z,17.13
2023-01-21T12:50:09.550Z,12.37
2023-01-21T12:52:43.616Z,15.70
2023-01-21T12:55:18.471Z,10.97
2023-01-21T12:57:52.271Z,26.43
2023-01-21T13:00:24.347Z,9.80
2023-01-21T13:03:03.143Z,15.93
2023-01-21T13:05:36.114Z,19.83
2023-01-21T13:08:33.335Z,22.33
2023-01-21T13:11:05.999Z,15.60
2023-01-21T13:13:37.402Z,12.10
2023-01-21T13:16:07.574Z,11.67
2023-01-21T13:18:37.640Z,14.43
2023-01-21T13:21:14.510Z,10.47
2023-01-21T13:23:46.137Z,9.30
2023-01-21T13:26:18.524Z,12.00
2023-01-21T13:28:52.331Z,11.67
2023-01-21T13:31:25.408Z,8.97
2023-01-21T13:33:59.885Z,10.57
2023-01-21T13:36:41.948Z,10.00
2023-01-21T13:39:18.960Z,15.50
2023-01-21T13:41:56.636Z,8.53
2023-01-21T13:44:54.339Z,10.27
2023-01-21T13:47:31.617Z,9.53
2023-01-21T13:50:16.891Z,12.50
2023-01-21T13:52:54.750Z,12.00
2023-01-21T13:55:37.133Z,13.27
2023-01-21T13:58:08.812Z,11.83
2023-01-21T14:00:43.048Z,9.97
2023-01-21T14:03:20.361Z,8.07
2023-01-21T14:05:52.685Z,12.43
2023-01-21T14:08:23.944Z,13.47
2023-01-21T14:10:54.731Z,12.37
2023-01-21T14:13:56.335Z,10.63
2023-01-21T14:16:46.760Z,8.90
2023-01-21T14:19:30.604Z,12.87
2023-01-21T14:22:14.452Z,3.97
2023-01-21T14:24:54.151Z,10.40
2023-01-21T14:27:28.720Z,9.77
2023-01-21T14:30:04.290Z,9.70
2023-01-21T14:32:39.880Z,10.27
2023-01-21T14:35:15.004Z,17.20
2023-01-21T14:37:44.349Z,10.33
2023-01-21T14:40:17.488Z,8.80
2023-01-21T14:42:46.262Z,10.10
2023-01-21T14:45:16.063Z,12.70
2023-01-21T14:47:46.424Z,10.97
2023-01-21T14:50:46.565Z,6.60
2023-01-21T14:53:18.482Z,7.53
2023-01-21T14:55:45.415Z,6.07
2023-01-21T14:58:22.146Z,6.80
2023-01-21T15:00:50.129Z,6.07
2023-01-21T15:03:21.022Z,6.87
2023-01-21T15:05:51.918Z,3.60
2023-01-21T15:08:23.228Z,4.83
2023-01-21T15:10:53.763Z,8.07
2023-01-21T15:13:38.135Z,8.00
2023-01-21T15:16:14.418Z,7.37
2023-01-21T15:18:44.718Z,11.23
2023-01-21T15:21:33.101Z,5.67
2023-01-21T15:24:20.406Z,5.40
2023-01-21T15:27:18.352Z,5.43
2023-01-21T15:29:46.576Z,6.67
2023-01-21T15:32:27.059Z,5.30
2023-01-21T15:34:58.232Z,6.27
2023-01-21T15:37:26.271Z,8.10
2023-01-21T15:39:59.746Z,4.87
2023-01-21T15:42:36.789Z,6.67
2023-01-21T15:45:27.133Z,11.77
2023-01-21T15:48:40.803Z,9.47
2023-01-21T15:51:20.699Z,6.47
2023-01-21T15:54:10.340Z,8.83
2023-01-21T15:56:52.643Z,10.63
2023-01-21T15:59:31.069Z,10.57
2023-01-21T16:02:15.492Z,9.30
2023-01-21T16:04:51.248Z,8.00
2023-01-21T16:07:26.973Z,11.33
2023-01-21T16:10:08.202Z,10.30
2023-01-21T16:12:45.294Z,10.87
2023-01-21T16:15:19.599Z,7.13
2023-01-21T16:18:01.235Z,12.40
2023-01-21T16:20:28.509Z,9.70
2023-01-21T16:22:58.876Z,8.53
2023-01-21T16:25:26.601Z,8.60
2023-01-21T16:27:54.719Z,14.27
2023-01-21T16:30:25.290Z,12.90
2023-01-21T16:33:07.709Z,18.70
2023-01-21T16:35:45.126Z,10.17
2023-01-21T16:38:17.183Z,6.13
2023-01-21T16:40:44.205Z,12.03
2023-01-21T16:43:23.394Z,12.77
2023-01-21T16:45:52.457Z,9.33
2023-01-21T16:48:27.615Z,10.17
2023-01-21T16:50:54.603Z,20.07
2023-01-21T16:53:23.759Z,10.10
2023-01-21T16:55:52.728Z,17.40
2023-01-21T16:58:22.716Z,15.90
2023-01-21T17:00:59.859Z,11.53
2023-01-21T17:03:27.367Z,14.10
2023-01-21T17:05:57.157Z,14.90
2023-01-21T17:08:24.595Z,12.93
2023-01-21T17:10:55.950Z,19.13
2023-01-21T17:13:22.954Z,19.57
2023-01-21T17:15:56.654Z,10.77
2023-01-21T17:18:27.154Z,11.50
2023-01-21T17:21:00.799Z,11.10
2023-01-21T17:23:30.334Z,11.77
2023-01-21T17:26:02.666Z,7.50
2023-01-21T17:28:31.680Z,10.00
2023-01-21T17:31:22.001Z,10.77
2023-01-21T17:34:02.365Z,7.30
2023-01-21T17:36:33.803Z,10.63
2023-01-21T17:39:01.669Z,9.40
2023-01-21T17:41:31.629Z,6.30
2023-01-21T17:43:59.722Z,12.97
2023-01-21T17:46:27.088Z,14.00
2023-01-21T17:48:57.460Z,18.10
2023-01-21T17:51:27.632Z,11.20
2023-01-21T17:53:58.694Z,8.90
2023-01-21T17:56:37.657Z,12.03
2023-01-21T17:59:33.879Z,11.90
2023-01-21T18:02:01.105Z,9.80
2023-01-21T18:04:28.299Z,17.17
2023-01-21T18:06:55.819Z,11.27
2023-01-21T18:09:24.478Z,12.17
2023-01-21T18:11:53.590Z,13.93
2023-01-21T18:14:22.651Z,14.40
2023-01-21T18:16:49.817Z,14.17
2023-01-21T18:19:27.902Z,13.20
2023-01-21T18:21:55.032Z,17.03
2023-01-21T18:24:22.036Z,13.37
2023-01-21T18:26:49.060Z,10.83
2023-01-21T18:29:17.609Z,18.87
2023-01-21T18:31:44.627Z,13.83
2023-01-21T18:34:11.909Z,7.77
2023-01-21T18:36:39.250Z,11.40
2023-01-21T18:39:11.487Z,15.17
2023-01-21T18:41:38.279Z,10.90
2023-01-21T18:44:05.348Z,7.03
2023-01-21T18:46:32.952Z,12.80
2023-01-21T18:49:04.977Z,9.70
2023-01-21T18:51:31.941Z,16.30
2023-01-21T18:53:58.556Z,13.13
2023-01-21T18:56:25.524Z,9.73
2023-01-21T18:58:52.180Z,9.93
2023-01-21T19:01:23.789Z,13.50
2023-01-21T19:03:53.439Z,14.60
2023-01-21T19:06:20.715Z,13.83
2023-01-21T19:08:48.178Z,10.47
2023-01-21T19:11:15.345Z,11.00
2023-01-21T19:13:42.253Z,12.77
2023-01-21T19:16:14.103Z,18.80
2023-01-21T19:18:40.794Z,8.63
2023-01-21T19:21:08.194Z,22.43
2023-01-21T19:23:35.073Z,12.97
2023-01-21T19:26:02.592Z,10.20
2023-01-21T19:28:29.748Z,9.73
2023-01-21T19:30:57.599Z,15.53
2023-01-21T19:33:25.257Z,9.33
2023-01-21T19:35:59.105Z,9.40
2023-01-21T19:38:26.906Z,12.30
2023-01-21T19:40:54.557Z,11.63
2023-01-21T19:43:21.568Z,18.37
2023-01-21T19:45:48.728Z,17.93
2023-01-21T19:48:17.058Z,11.23
2023-01-21T19:50:44.007Z,10.23
2023-01-21T19:53:12.933Z,15.17
2023-01-21T19:55:40.956Z,14.63
2023-01-21T19:58:15.198Z,11.03
2023-01-21T20:00:41.907Z,6.73
2023-01-21T20:03:11.097Z,12.27
2023-01-21T20:05:37.771Z,15.00
2023-01-21T20:08:04.713Z,14.60
2023-01-21T20:10:31.603Z,15.87
2023-01-21T20:12:58.930Z,11.77
2023-01-21T20:15:29.288Z,10.30
2023-01-21T20:17:58.471Z,20.17
2023-01-21T20:20:27.732Z,8.00
2023-01-21T20:22:54.730Z,19.87
2023-01-21T20:25:23.528Z,14.57
2023-01-21T20:27:52.241Z,10.83
2023-01-21T20:30:22.061Z,14.03
2023-01-21T20:32:49.304Z,11.60
2023-01-21T20:35:17.200Z,14.73
2023-01-21T20:37:48.076Z,12.67
2023-01-21T20:40:18.243Z,15.07
2023-01-21T20:42:45.281Z,12.03
2023-01-21T20:45:13.171Z,15.33
2023-01-21T20:47:49.742Z,9.67
2023-01-21T20:50:19.243Z,19.27
2023-01-21T20:52:45.978Z,13.53
2023-01-21T20:55:13.172Z,11.37
2023-01-21T20:57:40.177Z,11.67
2023-01-21T21:00:12.888Z,14.27
2023-01-21T21:02:40.219Z,11.40
2023-01-21T21:05:07.705Z,7.93
2023-01-21T21:07:34.383Z,11.73
2023-01-21T21:10:01.107Z,13.70
2023-01-21T21:12:27.902Z,18.83
2023-01-21T21:14:54.515Z,12.63
2023-01-21T21:17:21.917Z,17.37
2023-01-21T21:19:49.194Z,12.73
2023-01-21T21:22:15.935Z,13.93
2023-01-21T21:24:43.054Z,12.70
2023-01-21T21:27:10.999Z,16.33
2023-01-21T21:29:37.687Z,14.10
2023-01-21T21:32:06.076Z,13.67
2023-01-21T21:34:32.990Z,15.37
2023-01-21T21:37:00.240Z,11.80
2023-01-21T21:39:27.167Z,12.03
2023-01-21T21:42:13.439Z,31.27
2023-01-21T21:44:42.563Z,15.37
2023-01-21T21:47:27.706Z,13.73
2023-01-21T21:49:54.427Z,14.50
2023-01-21T21:52:22.234Z,12.10
2023-01-21T21:54:49.031Z,15.03
2023-01-21T21:57:16.183Z,13.43
2023-01-21T21:59:42.949Z,16.03
2023-01-21T22:02:10.578Z,13.27
2023-01-21T22:04:37.538Z,14.20
2023-01-21T22:07:04.462Z,11.20
2023-01-21T22:09:33.381Z,11.83
2023-01-21T22:12:00.303Z,14.80
2023-01-21T22:14:26.999Z,10.30
2023-01-21T22:16:53.857Z,7.80
2023-01-21T22:19:20.878Z,16.87
2023-01-21T22:21:47.804Z,13.20
2023-01-21T22:24:15.046Z,15.43
2023-01-21T22:26:42.382Z,11.83
2023-01-21T22:29:09.346Z,15.70
2023-01-21T22:31:36.178Z,10.03
2023-01-21T22:34:02.975Z,11.30
2023-01-21T22:36:30.930Z,15.87
2023-01-21T22:38:57.880Z,9.27
2023-01-21T22:41:25.407Z,11.07
2023-01-21T22:43:53.213Z,14.47
2023-01-21T22:46:21.630Z,11.53
2023-01-21T22:48:48.373Z,17.27
2023-01-21T22:51:16.726Z,7.50
2023-01-21T22:53:43.469Z,13.23
2023-01-21T22:56:11.546Z,10.57
2023-01-21T22:58:38.478Z,10.73
2023-01-21T23:01:06.223Z,8.27
2023-01-21T23:03:33.235Z,15.57
2023-01-21T23:06:03.705Z,8.53
2023-01-21T23:08:30.491Z,10.13
2023-01-21T23:11:00.859Z,14.33
2023-01-21T23:13:27.534Z,14.63
2023-01-21T23:15:54.364Z,12.70
2023-01-21T23:18:21.730Z,9.47
2023-01-21T23:20:48.737Z,11.40
2023-01-21T23:23:15.606Z,12.57
2023-01-21T23:25:43.066Z,11.70
2023-01-21T23:28:10.360Z,9.97
2023-01-21T23:30:36.945Z,13.33
2023-01-21T23:33:03.815Z,10.10
2023-01-21T23:35:31.963Z,6.60
2023-01-21T23:38:00.099Z,14.53
2023-01-21T23:40:26.728Z,13.37
2023-01-21T23:42:53.763Z,9.17
2023-01-21T23:45:20.399Z,13.67
2023-01-21T23:47:47.122Z,11.20
2023-01-21T23:50:14.063Z,14.80
2023-01-21T23:52:41.378Z,7.97
2023-01-21T23:55:09.900Z,11.00
2023-01-21T23:57:36.819Z,9.20
